createdAt,value
2018-05-18T00:01:35.142Z,8.26
2018-05-18T00:04:03.502Z,8.32
2018-05-18T00:06:31.923Z,8.34
2018-05-18T00:09:00.288Z,8.40
2018-05-18T00:11:28.661Z,8.39
2018-05-18T00:13:57.067Z,8.28
2018-05-18T00:16:25.429Z,8.18
2018-05-18T00:18:53.798Z,8.10
2018-05-18T00:21:22.171Z,8.14
2018-05-18T00:23:50.564Z,8.24
2018-05-18T00:26:18.937Z,8.38
2018-05-18T00:28:47.318Z,8.49
2018-05-18T00:31:15.701Z,8.70
2018-05-18T00:33:44.053Z,8.78
2018-05-18T00:36:13.197Z,9.00
2018-05-18T00:38:41.660Z,9.12
2018-05-18T00:41:10.047Z,9.37
2018-05-18T00:43:38.437Z,9.50
2018-05-18T00:46:06.813Z,9.65
2018-05-18T00:48:35.261Z,9.77
2018-05-18T00:51:04.402Z,9.76
2018-05-18T00:53:32.797Z,9.85
2018-05-18T00:56:01.193Z,9.90
2018-05-18T00:58:29.569Z,10.01
2018-05-18T01:00:57.956Z,10.06
2018-05-18T01:03:26.326Z,9.96
2018-05-18T01:05:54.714Z,9.85
2018-05-18T01:08:23.098Z,9.97
2018-05-18T01:10:51.489Z,10.11
2018-05-18T01:13:20.769Z,9.98
2018-05-18T01:15:49.216Z,9.91
2018-05-18T01:18:17.597Z,9.98
2018-05-18T01:20:46.807Z,10.10
2018-05-18T01:23:15.981Z,10.26
2018-05-18T01:25:44.357Z,10.22
2018-05-18T01:28:12.782Z,10.16
2018-05-18T01:30:41.922Z,10.09
2018-05-18T01:33:10.330Z,10.07
2018-05-18T01:35:38.896Z,10.09
2018-05-18T01:38:08.023Z,10.24
2018-05-18T01:40:36.459Z,10.28
2018-05-18T01:43:04.841Z,10.22
2018-05-18T01:45:33.238Z,10.17
2018-05-18T01:48:01.756Z,10.31
2018-05-18T01:50:30.165Z,10.22
2018-05-18T01:52:59.345Z,10.28
2018-05-18T01:55:27.748Z,10.27
2018-05-18T01:57:56.955Z,10.31
2018-05-18T02:00:25.301Z,10.31
2018-05-18T02:02:53.666Z,10.36
2018-05-18T02:05:22.203Z,10.16
2018-05-18T02:07:51.349Z,10.25
2018-05-18T02:10:19.766Z,10.43
2018-05-18T02:12:48.200Z,10.48
2018-05-18T02:15:16.585Z,10.40
2018-05-18T02:17:44.998Z,10.46
2018-05-18T02:20:13.390Z,10.58
2018-05-18T02:22:43.385Z,10.49
2018-05-18T02:25:11.868Z,10.43
2018-05-18T02:27:40.250Z,10.51
2018-05-18T02:30:08.625Z,10.52
2018-05-18T02:32:36.998Z,10.54
2018-05-18T02:35:05.397Z,10.59
2018-05-18T02:37:33.794Z,10.52
2018-05-18T02:40:02.244Z,10.42
2018-05-18T02:42:30.612Z,10.39
2018-05-18T02:44:59.754Z,10.38
2018-05-18T02:47:28.235Z,10.43
2018-05-18T02:49:56.618Z,10.43
2018-05-18T02:52:25.039Z,10.36
2018-05-18T02:54:53.460Z,10.50
2018-05-18T02:57:21.748Z,10.39
2018-05-18T02:59:50.205Z,10.43
2018-05-18T03:02:19.372Z,10.44
2018-05-18T03:04:47.719Z,10.32
2018-05-18T03:07:16.262Z,10.45
2018-05-18T03:09:44.637Z,10.21
2018-05-18T03:12:13.821Z,10.19
2018-05-18T03:14:42.580Z,10.36
2018-05-18T03:17:10.969Z,10.31
2018-05-18T03:19:39.374Z,10.34
2018-05-18T03:22:07.759Z,10.37
2018-05-18T03:24:36.246Z,10.31
2018-05-18T03:27:04.821Z,10.34
2018-05-18T03:29:33.197Z,10.24
2018-05-18T03:32:01.583Z,10.16
2018-05-18T03:34:30.152Z,10.17
2018-05-18T03:36:58.530Z,10.17
2018-05-18T03:39:26.902Z,10.33
2018-05-18T03:41:55.305Z,10.24
2018-05-18T03:44:23.694Z,10.09
2018-05-18T03:46:52.086Z,10.23
2018-05-18T03:49:20.557Z,10.21
2018-05-18T03:51:48.958Z,10.19
2018-05-18T03:54:17.353Z,10.24
2018-05-18T03:56:45.733Z,10.30
2018-05-18T03:59:14.149Z,10.31
2018-05-18T04:02:00.865Z,10.35
2018-05-18T04:04:47.671Z,10.28
2018-05-18T04:07:34.372Z,10.26
2018-05-18T04:10:02.767Z,10.34
2018-05-18T04:12:31.146Z,10.43
2018-05-18T04:14:59.529Z,10.39
2018-05-18T04:17:27.917Z,10.43
2018-05-18T04:19:56.531Z,10.44
2018-05-18T04:22:24.894Z,10.35
2018-05-18T04:24:53.266Z,10.31
2018-05-18T04:27:21.629Z,10.26
2018-05-18T04:29:50.757Z,10.48
2018-05-18T04:32:19.152Z,10.20
2018-05-18T04:34:47.534Z,10.44
2018-05-18T04:37:15.937Z,10.54
2018-05-18T04:39:44.310Z,10.38
2018-05-18T04:42:12.706Z,10.17
2018-05-18T04:44:41.110Z,10.39
2018-05-18T04:47:09.497Z,10.49
2018-05-18T04:49:37.874Z,10.38
2018-05-18T04:52:07.798Z,10.32
2018-05-18T04:54:36.181Z,10.19
2018-05-18T04:57:04.555Z,10.30
2018-05-18T04:59:32.965Z,10.19
2018-05-18T05:02:02.197Z,10.30
2018-05-18T05:04:30.769Z,10.25
2018-05-18T05:06:59.145Z,10.06
2018-05-18T05:09:28.277Z,10.14
2018-05-18T05:11:56.661Z,10.31
2018-05-18T05:14:25.058Z,9.98
2018-05-18T05:16:53.450Z,10.11
2018-05-18T05:19:21.828Z,10.30
2018-05-18T05:21:50.290Z,10.16
2018-05-18T05:24:18.670Z,10.26
2018-05-18T05:26:47.062Z,10.31
2018-05-18T05:29:15.461Z,10.32
2018-05-18T05:31:43.877Z,10.31
2018-05-18T05:34:13.024Z,10.37
2018-05-18T05:36:41.459Z,10.44
2018-05-18T05:39:09.809Z,10.43
2018-05-18T05:41:38.237Z,10.34
2018-05-18T05:44:07.450Z,10.40
2018-05-18T05:46:35.860Z,10.34
2018-05-18T05:49:04.380Z,10.51
2018-05-18T05:51:32.773Z,10.44
2018-05-18T05:54:01.173Z,10.70
2018-05-18T05:56:30.354Z,10.49
2018-05-18T05:58:58.784Z,10.56
2018-05-18T06:01:27.175Z,10.64
2018-05-18T06:03:55.577Z,10.87
2018-05-18T06:06:24.096Z,11.30
2018-05-18T06:08:53.246Z,11.33
2018-05-18T06:11:21.654Z,11.34
2018-05-18T06:13:50.115Z,11.36
2018-05-18T06:16:18.716Z,11.73
2018-05-18T06:18:47.109Z,11.86
2018-05-18T06:21:15.493Z,11.84
2018-05-18T06:23:43.909Z,11.94
2018-05-18T06:26:13.054Z,11.99
2018-05-18T06:28:41.526Z,12.07
2018-05-18T06:31:09.864Z,11.97
2018-05-18T06:33:38.261Z,11.79
2018-05-18T06:36:07.446Z,12.14
2018-05-18T06:38:36.637Z,12.01
2018-05-18T06:41:05.019Z,12.23
2018-05-18T06:43:33.408Z,12.08
2018-05-18T06:48:37.001Z,12.27
2018-05-18T06:51:05.412Z,12.30
2018-05-18T06:53:33.786Z,12.27
2018-05-18T06:56:02.176Z,12.33
2018-05-18T06:58:31.398Z,12.20
2018-05-18T07:01:00.784Z,12.40
2018-05-18T07:03:29.173Z,12.24
2018-05-18T07:05:58.324Z,12.48
2018-05-18T07:08:26.707Z,12.87
2018-05-18T07:10:55.094Z,12.92
2018-05-18T07:13:23.466Z,13.00
2018-05-18T07:15:51.851Z,13.34
2018-05-18T07:18:20.411Z,13.27
2018-05-18T07:20:49.545Z,13.42
2018-05-18T07:23:18.869Z,13.44
2018-05-18T07:25:47.257Z,13.35
2018-05-18T07:28:15.738Z,13.64
2018-05-18T07:30:44.305Z,13.95
2018-05-18T07:33:12.754Z,14.46
2018-05-18T07:35:41.934Z,14.68
2018-05-18T07:38:10.505Z,14.42
2018-05-18T07:40:38.909Z,14.26
2018-05-18T07:43:07.301Z,13.86
2018-05-18T07:45:36.481Z,13.62
2018-05-18T07:48:04.870Z,13.51
2018-05-18T07:50:33.291Z,13.91
2018-05-18T07:53:02.487Z,14.16
2018-05-18T07:55:31.645Z,14.17
2018-05-18T07:58:00.039Z,14.59
2018-05-18T08:00:28.542Z,14.78
2018-05-18T08:02:57.692Z,14.76
2018-05-18T08:05:26.071Z,15.06
2018-05-18T08:07:54.480Z,15.10
2018-05-18T08:10:22.901Z,14.90
2018-05-18T08:12:52.081Z,15.24
2018-05-18T08:15:20.462Z,16.18
2018-05-18T08:17:49.004Z,16.13
2018-05-18T08:20:17.382Z,15.76
2018-05-18T08:22:46.001Z,17.23
2018-05-18T08:25:14.399Z,17.47
2018-05-18T08:27:42.844Z,16.96
2018-05-18T08:30:11.225Z,17.92
2018-05-18T08:32:39.673Z,18.21
2018-05-18T08:35:08.869Z,18.75
2018-05-18T08:37:37.265Z,17.66
2018-05-18T08:40:06.429Z,16.65
2018-05-18T08:42:34.860Z,16.96
2018-05-18T08:45:03.997Z,18.37
2018-05-18T08:47:32.373Z,18.57
2018-05-18T08:50:01.113Z,17.93
2018-05-18T08:52:33.022Z,17.54
2018-05-18T08:55:01.659Z,17.60
2018-05-18T08:57:30.873Z,17.93
2018-05-18T08:59:59.362Z,19.39
2018-05-18T09:02:27.785Z,20.35
2018-05-18T09:04:56.190Z,20.59
2018-05-18T09:07:24.600Z,19.68
2018-05-18T09:09:53.116Z,18.85
2018-05-18T09:12:22.290Z,18.08
2018-05-18T09:14:50.673Z,19.18
2018-05-18T09:17:19.058Z,19.43
2018-05-18T09:19:47.434Z,20.02
2018-05-18T09:22:15.815Z,22.27
2018-05-18T09:24:44.197Z,20.86
2018-05-18T09:27:12.604Z,19.99
2018-05-18T09:29:41.759Z,22.16
2018-05-18T09:32:10.164Z,24.05
2018-05-18T09:34:38.574Z,23.08
2018-05-18T09:37:07.717Z,22.13
2018-05-18T09:39:36.137Z,21.44
2018-05-18T09:42:04.520Z,21.08
2018-05-18T09:44:32.901Z,20.57
2018-05-18T09:47:01.326Z,23.05
2018-05-18T09:49:29.701Z,23.51
2018-05-18T09:51:59.023Z,21.38
2018-05-18T09:54:27.665Z,22.16
2018-05-18T09:56:55.825Z,23.17
2018-05-18T09:59:24.209Z,21.46
2018-05-18T10:01:52.901Z,19.86
2018-05-18T10:04:23.263Z,19.31
2018-05-18T10:06:51.781Z,20.75
2018-05-18T10:09:20.078Z,21.50
2018-05-18T10:11:48.566Z,22.06
2018-05-18T10:14:16.958Z,21.10
2018-05-18T10:16:45.350Z,21.83
2018-05-18T10:19:13.755Z,23.40
2018-05-18T10:21:42.904Z,23.24
2018-05-18T10:24:11.327Z,23.14
2018-05-18T10:26:39.706Z,22.63
2018-05-18T10:29:08.129Z,22.83
2018-05-18T10:31:36.524Z,23.18
2018-05-18T10:34:05.046Z,22.95
2018-05-18T10:36:33.462Z,23.97
2018-05-18T10:39:02.641Z,22.15
2018-05-18T10:41:31.030Z,21.74
2018-05-18T10:43:59.418Z,23.04
2018-05-18T10:46:27.809Z,23.31
2018-05-18T10:48:56.232Z,23.49
2018-05-18T10:51:24.614Z,22.78
2018-05-18T10:53:53.009Z,22.60
2018-05-18T10:56:21.376Z,22.56
2018-05-18T10:58:49.774Z,22.92
2018-05-18T11:01:18.152Z,22.92
2018-05-18T11:03:46.553Z,23.16
2018-05-18T11:06:14.942Z,21.90
2018-05-18T11:08:43.358Z,22.63
2018-05-18T11:11:11.794Z,22.19
2018-05-18T11:13:40.266Z,22.32
2018-05-18T11:16:08.650Z,21.40
2018-05-18T11:18:37.087Z,22.74
2018-05-18T11:21:05.657Z,22.76
2018-05-18T11:23:34.021Z,22.12
2018-05-18T11:26:02.456Z,22.96
2018-05-18T11:30:52.013Z,22.38
2018-05-18T11:33:20.414Z,22.48
2018-05-18T11:35:48.815Z,23.37
2018-05-18T11:38:17.197Z,22.71
2018-05-18T11:40:45.566Z,23.24
2018-05-18T11:43:13.969Z,23.97
2018-05-18T11:45:42.435Z,22.91
2018-05-18T11:48:10.909Z,22.71
2018-05-18T11:50:40.022Z,22.29
2018-05-18T11:53:08.426Z,22.65
2018-05-18T11:55:36.867Z,22.38
2018-05-18T11:58:06.222Z,22.34
2018-05-18T12:00:34.768Z,21.59
2018-05-18T12:03:03.154Z,22.36
2018-05-18T12:05:31.564Z,22.62
2018-05-18T12:07:59.946Z,21.42
2018-05-18T12:10:28.345Z,22.82
2018-05-18T12:12:57.485Z,23.06
2018-05-18T12:15:25.904Z,22.73
2018-05-18T12:17:54.278Z,22.92
2018-05-18T12:20:24.335Z,22.21
2018-05-18T12:22:52.698Z,22.76
2018-05-18T12:25:21.102Z,22.89
2018-05-18T12:27:50.260Z,22.42
2018-05-18T12:30:18.655Z,22.89
2018-05-18T12:32:47.035Z,23.21
2018-05-18T12:35:15.433Z,23.41
2018-05-18T12:37:43.819Z,23.50
2018-05-18T12:40:12.210Z,23.41
2018-05-18T12:42:40.623Z,23.66
2018-05-18T12:45:09.009Z,23.44
2018-05-18T12:47:37.375Z,23.43
2018-05-18T12:50:06.513Z,22.94
2018-05-18T12:52:34.965Z,22.96
2018-05-18T12:55:03.323Z,22.87
2018-05-18T12:57:31.706Z,23.51
2018-05-18T13:00:00.214Z,23.86
2018-05-18T13:02:29.365Z,24.11
2018-05-18T13:04:57.746Z,23.18
2018-05-18T13:07:26.126Z,23.44
2018-05-18T13:09:54.520Z,24.01
2018-05-18T13:12:22.898Z,23.27
2018-05-18T13:14:51.310Z,23.56
2018-05-18T13:17:19.707Z,23.39
2018-05-18T13:19:48.902Z,22.54
2018-05-18T13:22:17.321Z,22.50
2018-05-18T13:24:45.716Z,22.61
2018-05-18T13:27:14.122Z,23.54
2018-05-18T13:29:42.504Z,23.10
2018-05-18T13:32:10.918Z,22.51
2018-05-18T13:34:39.290Z,23.40
2018-05-18T13:37:07.696Z,23.55
2018-05-18T13:39:36.918Z,23.72
2018-05-18T13:42:05.305Z,24.46
2018-05-18T13:44:33.697Z,24.27
2018-05-18T13:47:02.126Z,24.41
2018-05-18T13:49:30.513Z,24.29
2018-05-18T13:51:58.915Z,23.63
2018-05-18T13:54:28.065Z,22.93
2018-05-18T13:56:56.530Z,23.29
2018-05-18T13:59:25.040Z,24.06
2018-05-18T14:01:53.573Z,22.97
2018-05-18T14:04:22.713Z,23.51
2018-05-18T14:06:51.127Z,24.97
2018-05-18T14:09:19.513Z,24.95
2018-05-18T14:11:47.904Z,25.09
2018-05-18T14:14:16.303Z,24.94
2018-05-18T14:16:45.438Z,26.04
2018-05-18T14:19:13.858Z,25.04
2018-05-18T14:21:42.278Z,24.94
2018-05-18T14:24:11.451Z,25.38
2018-05-18T14:26:39.832Z,25.58
2018-05-18T14:29:08.194Z,25.80
2018-05-18T14:31:36.608Z,26.84
2018-05-18T14:34:04.991Z,25.02
2018-05-18T14:36:33.366Z,25.28
2018-05-18T14:39:01.752Z,25.70
2018-05-18T14:41:30.149Z,25.28
2018-05-18T14:43:59.457Z,24.98
2018-05-18T14:46:28.511Z,24.38
2018-05-18T14:48:56.902Z,25.04
2018-05-18T14:51:25.297Z,24.97
2018-05-18T14:53:53.701Z,24.20
2018-05-18T14:56:22.858Z,25.28
2018-05-18T14:58:51.258Z,25.17
2018-05-18T15:01:19.646Z,24.45
2018-05-18T15:03:48.065Z,24.30
2018-05-18T15:06:17.199Z,24.70
2018-05-18T15:08:45.578Z,24.71
2018-05-18T15:11:15.070Z,23.90
2018-05-18T15:13:43.470Z,23.15
2018-05-18T15:16:11.847Z,23.51
2018-05-18T15:18:40.326Z,23.30
2018-05-18T15:21:08.715Z,23.59
2018-05-18T15:23:37.157Z,24.27
2018-05-18T15:26:05.535Z,23.79
2018-05-18T15:28:34.029Z,23.65
2018-05-18T15:31:03.198Z,22.01
2018-05-18T15:33:31.577Z,22.96
2018-05-18T15:35:59.958Z,22.23
2018-05-18T15:38:28.356Z,21.99
2018-05-18T15:40:57.497Z,22.24
2018-05-18T15:43:26.697Z,22.54
2018-05-18T15:45:55.879Z,23.13
2018-05-18T15:48:24.257Z,22.68
2018-05-18T15:50:52.690Z,20.75
2018-05-18T15:53:21.172Z,22.02
2018-05-18T15:55:49.577Z,22.37
2018-05-18T15:58:18.004Z,21.56
2018-05-18T16:00:46.538Z,22.27
2018-05-18T16:03:15.030Z,21.94
2018-05-18T16:05:43.413Z,22.23
2018-05-18T16:08:11.918Z,22.10
2018-05-18T16:10:40.331Z,22.65
2018-05-18T16:13:09.463Z,22.44
2018-05-18T16:15:37.879Z,21.99
2018-05-18T16:18:06.278Z,21.70
2018-05-18T16:20:34.786Z,21.65
2018-05-18T16:23:03.191Z,20.44
2018-05-18T16:25:31.596Z,20.24
2018-05-18T16:28:00.026Z,20.59
2018-05-18T16:30:29.614Z,20.26
2018-05-18T16:32:58.040Z,20.72
2018-05-18T16:35:27.210Z,20.61
2018-05-18T16:37:55.611Z,20.12
2018-05-18T16:40:24.792Z,19.76
2018-05-18T16:42:53.176Z,19.51
2018-05-18T16:45:21.567Z,19.54
2018-05-18T16:47:49.965Z,19.47
2018-05-18T16:50:19.003Z,19.47
2018-05-18T16:52:47.529Z,19.18
2018-05-18T16:55:15.900Z,18.68
2018-05-18T16:57:44.289Z,18.87
2018-05-18T17:00:12.678Z,18.56
2018-05-18T17:02:41.077Z,18.32
2018-05-18T17:05:11.459Z,18.28
2018-05-18T17:07:39.859Z,18.19
2018-05-18T17:10:08.273Z,18.27
2018-05-18T17:12:37.478Z,18.12
2018-05-18T17:15:06.650Z,18.09
2018-05-18T17:17:35.053Z,18.02
2018-05-18T17:20:03.449Z,17.89
2018-05-18T17:22:31.989Z,17.83
2018-05-18T17:25:00.397Z,17.70
2018-05-18T17:27:28.778Z,17.65
2018-05-18T17:29:57.179Z,17.70
2018-05-18T17:32:25.576Z,17.48
2018-05-18T17:34:54.779Z,17.46
2018-05-18T17:37:23.922Z,17.39
2018-05-18T17:39:52.322Z,17.32
2018-05-18T17:42:20.777Z,17.50
2018-05-18T17:44:49.112Z,17.41
2018-05-18T17:47:17.494Z,17.42
2018-05-18T17:49:46.670Z,17.42
2018-05-18T17:52:15.078Z,17.28
2018-05-18T17:54:44.324Z,17.11
2018-05-18T17:57:12.962Z,17.21
2018-05-18T17:59:41.357Z,17.21
2018-05-18T18:02:11.335Z,17.04
2018-05-18T18:04:39.836Z,17.01
2018-05-18T18:07:08.234Z,17.19
2018-05-18T18:09:39.183Z,17.01
2018-05-18T18:12:08.356Z,16.97
2018-05-18T18:14:36.766Z,17.08
2018-05-18T18:17:06.061Z,16.70
2018-05-18T18:19:35.966Z,16.80
2018-05-18T18:22:04.449Z,16.83
2018-05-18T18:24:32.880Z,16.67
2018-05-18T18:27:02.023Z,16.60
2018-05-18T18:29:30.436Z,16.43
2018-05-18T18:31:58.921Z,16.52
2018-05-18T18:34:27.329Z,16.41
2018-05-18T18:36:56.514Z,16.58
2018-05-18T18:39:25.044Z,16.40
2018-05-18T18:41:53.450Z,16.26
2018-05-18T18:44:21.846Z,16.23
2018-05-18T18:46:50.431Z,16.06
2018-05-18T18:49:19.629Z,16.17
2018-05-18T18:51:48.309Z,16.06
2018-05-18T18:54:16.740Z,15.99
2018-05-18T18:56:45.884Z,15.72
2018-05-18T18:59:14.266Z,15.55
2018-05-18T19:01:42.670Z,15.37
2018-05-18T19:04:11.222Z,15.17
2018-05-18T19:06:39.634Z,15.03
2018-05-18T19:09:08.181Z,14.89
2018-05-18T19:11:36.614Z,14.63
2018-05-18T19:14:05.926Z,14.51
2018-05-18T19:16:34.330Z,14.36
2018-05-18T19:19:02.714Z,14.30
2018-05-18T19:21:31.131Z,14.28
2018-05-18T19:23:59.512Z,14.27
2018-05-18T19:26:28.040Z,14.12
2018-05-18T19:28:56.440Z,14.04
2018-05-18T19:31:24.819Z,13.90
2018-05-18T19:33:54.826Z,13.75
2018-05-18T19:36:23.471Z,13.79
2018-05-18T19:38:52.611Z,13.71
2018-05-18T19:41:20.978Z,13.64
2018-05-18T19:43:49.506Z,13.73
2018-05-18T19:46:18.606Z,13.69
2018-05-18T19:48:47.007Z,13.69
2018-05-18T19:51:16.197Z,13.73
2018-05-18T19:53:45.389Z,13.60
2018-05-18T19:56:15.278Z,13.54
2018-05-18T19:58:43.678Z,13.53
2018-05-18T20:01:12.130Z,13.60
2018-05-18T20:03:40.796Z,13.52
2018-05-18T20:06:09.264Z,13.52
2018-05-18T20:08:37.804Z,13.40
2018-05-18T20:11:06.206Z,13.30
2018-05-18T20:13:34.619Z,13.26
2018-05-18T20:16:03.853Z,13.18
2018-05-18T20:18:32.414Z,13.17
2018-05-18T20:21:01.580Z,13.16
2018-05-18T20:23:29.985Z,13.27
2018-05-18T20:25:58.617Z,13.46
2018-05-18T20:28:27.131Z,13.36
2018-05-18T20:30:55.545Z,13.23
2018-05-18T20:33:23.928Z,13.27
2018-05-18T20:35:53.093Z,13.27
2018-05-18T20:38:21.540Z,13.23
2018-05-18T20:40:49.946Z,13.26
2018-05-18T20:43:18.346Z,13.09
2018-05-18T20:45:46.768Z,12.91
2018-05-18T20:48:15.288Z,12.71
2018-05-18T20:50:43.666Z,12.75
2018-05-18T20:53:12.094Z,12.66
2018-05-18T20:55:40.503Z,12.64
2018-05-18T20:58:08.903Z,12.60
2018-05-18T21:00:38.114Z,12.61
2018-05-18T21:03:06.577Z,12.61
2018-05-18T21:05:34.949Z,12.58
2018-05-18T21:08:03.346Z,12.66
2018-05-18T21:10:32.626Z,12.51
2018-05-18T21:13:00.958Z,12.37
2018-05-18T21:15:29.581Z,12.48
2018-05-18T21:17:58.066Z,12.41
2018-05-18T21:20:26.467Z,12.42
2018-05-18T21:22:54.849Z,12.27
2018-05-18T21:25:23.237Z,12.37
2018-05-18T21:27:51.718Z,12.29
2018-05-18T21:30:20.979Z,12.25
2018-05-18T21:32:49.393Z,12.15
2018-05-18T21:35:17.783Z,11.96
2018-05-18T21:37:46.210Z,11.89
2018-05-18T21:40:14.595Z,11.82
2018-05-18T21:42:43.859Z,11.72
2018-05-18T21:45:12.262Z,11.61
2018-05-18T21:47:41.499Z,11.60
2018-05-18T21:50:09.905Z,11.58
2018-05-18T21:52:38.312Z,11.64
2018-05-18T21:55:06.774Z,11.93
2018-05-18T21:57:35.186Z,11.93
2018-05-18T22:00:03.577Z,11.96
2018-05-18T22:02:32.743Z,11.93
2018-05-18T22:05:01.150Z,11.98
2018-05-18T22:07:29.685Z,11.84
2018-05-18T22:09:58.107Z,11.67
2018-05-18T22:12:26.495Z,11.50
2018-05-18T22:14:54.902Z,11.40
2018-05-18T22:17:24.176Z,11.33
2018-05-18T22:19:52.591Z,11.34
2018-05-18T22:22:21.929Z,11.44
2018-05-18T22:24:50.411Z,11.50
2018-05-18T22:27:18.846Z,11.54
2018-05-18T22:29:47.999Z,11.49
2018-05-18T22:32:16.398Z,11.45
2018-05-18T22:34:44.802Z,11.48
2018-05-18T22:37:13.213Z,11.53
2018-05-18T22:39:42.578Z,11.37
2018-05-18T22:42:11.033Z,11.36
2018-05-18T22:44:39.433Z,11.25
2018-05-18T22:47:07.858Z,11.22
2018-05-18T22:49:36.397Z,11.27
2018-05-18T22:52:04.890Z,11.44
2018-05-18T22:54:33.266Z,11.43
2018-05-18T22:57:01.649Z,11.24
2018-05-18T22:59:30.052Z,11.16
2018-05-18T23:01:58.458Z,11.10
2018-05-18T23:04:26.865Z,11.00
2018-05-18T23:06:56.074Z,10.97
2018-05-18T23:09:25.267Z,10.89
2018-05-18T23:11:53.629Z,10.74
2018-05-18T23:14:22.014Z,10.63
2018-05-18T23:16:50.432Z,10.50
2018-05-18T23:19:18.815Z,10.53
2018-05-18T23:21:47.234Z,10.43
2018-05-18T23:24:15.630Z,10.30
2018-05-18T23:26:44.053Z,10.16
2018-05-18T23:29:13.205Z,9.99
2018-05-18T23:31:41.794Z,9.95
2018-05-18T23:34:10.299Z,9.87
2018-05-18T23:36:38.791Z,9.80
2018-05-18T23:39:07.150Z,9.83
2018-05-18T23:41:35.510Z,9.91
2018-05-18T23:44:03.920Z,9.90
2018-05-18T23:46:32.327Z,9.83
2018-05-18T23:49:00.708Z,9.85
2018-05-18T23:51:29.106Z,9.77
2018-05-18T23:53:58.257Z,9.85
2018-05-18T23:56:26.632Z,9.82
2018-05-18T23:58:55.210Z,9.73
